createdAt,value
2022-11-16T00:01:02.277Z,15.35
2022-11-16T00:03:48.763Z,17.63
2022-11-16T00:06:34.135Z,14.02
2022-11-16T00:09:18.970Z,15.35
2022-11-16T00:12:06.174Z,14.73
2022-11-16T00:14:51.065Z,16.77
2022-11-16T00:17:35.930Z,15.35
2022-11-16T00:20:20.873Z,15.00
2022-11-16T00:23:05.643Z,14.05
2022-11-16T00:25:51.209Z,15.73
2022-11-16T00:28:36.599Z,14.88
2022-11-16T00:31:22.621Z,15.55
2022-11-16T00:34:07.826Z,15.43
2022-11-16T00:36:52.688Z,13.85
2022-11-16T00:39:37.555Z,14.83
2022-11-16T00:42:22.479Z,14.95
2022-11-16T00:45:08.191Z,15.70
2022-11-16T00:47:59.193Z,15.15
2022-11-16T00:50:46.070Z,16.95
2022-11-16T00:53:30.955Z,16.10
2022-11-16T00:56:16.032Z,17.83
2022-11-16T00:59:00.910Z,16.02
2022-11-16T01:01:46.176Z,16.92
2022-11-16T01:04:31.459Z,17.08
2022-11-16T01:07:16.523Z,22.33
2022-11-16T01:10:04.856Z,16.98
2022-11-16T01:12:51.225Z,17.67
2022-11-16T01:15:36.396Z,16.92
2022-11-16T01:18:21.246Z,16.17
2022-11-16T01:21:06.977Z,15.25
2022-11-16T01:23:52.344Z,15.80
2022-11-16T01:26:37.525Z,18.35
2022-11-16T01:29:28.128Z,15.85
2022-11-16T01:32:13.394Z,16.80
2022-11-16T01:34:58.804Z,17.67
2022-11-16T01:37:44.548Z,16.83
2022-11-16T01:40:29.600Z,16.67
2022-11-16T01:43:24.317Z,18.67
2022-11-16T01:46:09.702Z,18.08
2022-11-16T01:49:02.801Z,17.17
2022-11-16T01:51:55.244Z,17.63
2022-11-16T01:54:43.802Z,19.27
2022-11-16T01:57:33.777Z,17.65
2022-11-16T02:00:19.055Z,16.35
2022-11-16T02:03:03.812Z,19.42
2022-11-16T02:05:54.708Z,17.40
2022-11-16T02:09:17.794Z,18.13
2022-11-16T02:12:36.918Z,17.00
2022-11-16T02:15:29.256Z,17.88
2022-11-16T02:18:29.149Z,17.43
2022-11-16T02:21:26.147Z,18.73
2022-11-16T02:24:17.116Z,17.08
2022-11-16T02:27:23.326Z,19.00
2022-11-16T02:30:08.437Z,17.25
2022-11-16T02:33:01.466Z,18.10
2022-11-16T02:35:53.122Z,16.45
2022-11-16T02:38:42.788Z,15.90
2022-11-16T02:41:31.841Z,16.25
2022-11-16T02:44:25.718Z,17.02
2022-11-16T02:47:16.942Z,18.15
2022-11-16T02:50:09.640Z,17.57
2022-11-16T02:52:54.573Z,21.48
2022-11-16T02:55:39.741Z,18.73
2022-11-16T02:58:26.120Z,18.97
2022-11-16T03:01:29.295Z,20.33
2022-11-16T03:04:31.268Z,19.88
2022-11-16T03:07:21.321Z,19.27
2022-11-16T03:10:07.332Z,25.70
2022-11-16T03:12:52.789Z,19.43
2022-11-16T03:15:41.395Z,17.67
2022-11-16T03:18:28.247Z,23.13
2022-11-16T03:21:24.850Z,19.38
2022-11-16T03:24:10.379Z,20.27
2022-11-16T03:27:04.297Z,22.73
2022-11-16T03:30:23.790Z,20.95
2022-11-16T03:33:27.491Z,21.25
2022-11-16T03:36:31.564Z,21.53
2022-11-16T03:39:25.278Z,20.60
2022-11-16T03:42:13.076Z,20.77
2022-11-16T03:44:58.415Z,19.83
2022-11-16T03:47:43.422Z,21.73
2022-11-16T03:50:29.565Z,22.95
2022-11-16T03:53:14.400Z,23.47
2022-11-16T03:55:59.286Z,26.07
2022-11-16T03:58:44.192Z,22.43
2022-11-16T04:01:29.211Z,21.65
2022-11-16T04:04:14.648Z,23.35
2022-11-16T04:06:59.959Z,23.88
2022-11-16T04:09:44.856Z,22.95
2022-11-16T04:12:29.912Z,22.30
2022-11-16T04:15:15.184Z,21.77
2022-11-16T04:18:00.044Z,24.80
2022-11-16T04:20:45.351Z,23.10
2022-11-16T04:23:30.328Z,24.27
2022-11-16T04:26:15.434Z,22.08
2022-11-16T04:29:00.561Z,22.27
2022-11-16T04:31:45.375Z,22.73
2022-11-16T04:34:30.478Z,22.40
2022-11-16T04:37:18.015Z,26.50
2022-11-16T04:40:04.289Z,21.70
2022-11-16T04:42:52.523Z,27.48
2022-11-16T04:45:37.878Z,25.83
2022-11-16T04:48:22.963Z,27.70
2022-11-16T04:51:08.345Z,26.50
2022-11-16T04:53:53.207Z,25.48
2022-11-16T04:56:38.281Z,28.87
2022-11-16T04:59:23.095Z,26.57
2022-11-16T05:02:08.822Z,27.13
2022-11-16T05:04:54.208Z,27.23
2022-11-16T05:07:39.818Z,27.45
2022-11-16T05:10:25.154Z,28.85
2022-11-16T05:13:09.960Z,25.63
2022-11-16T05:15:54.794Z,29.93
2022-11-16T05:18:39.529Z,29.70
2022-11-16T05:21:24.941Z,33.33
2022-11-16T05:24:10.027Z,32.03
2022-11-16T05:26:55.883Z,31.67
2022-11-16T05:29:41.119Z,31.55
2022-11-16T05:32:27.622Z,30.38
2022-11-16T05:35:12.883Z,32.77
2022-11-16T05:37:58.227Z,32.77
2022-11-16T05:40:43.562Z,31.40
2022-11-16T05:43:29.722Z,31.00
2022-11-16T05:46:14.529Z,31.87
2022-11-16T05:48:59.669Z,30.57
2022-11-16T05:51:46.195Z,34.07
2022-11-16T05:54:31.275Z,31.63
2022-11-16T05:57:16.148Z,36.33
2022-11-16T06:00:01.091Z,37.08
2022-11-16T06:02:46.040Z,34.97
2022-11-16T06:05:34.083Z,35.73
2022-11-16T06:08:21.158Z,37.70
2022-11-16T06:11:09.049Z,36.17
2022-11-16T06:13:54.612Z,36.80
2022-11-16T06:16:39.872Z,36.53
2022-11-16T06:19:29.599Z,32.13
2022-11-16T06:22:17.305Z,35.33
2022-11-16T06:25:02.850Z,34.33
2022-11-16T06:27:48.117Z,37.00
2022-11-16T06:30:33.626Z,35.83
2022-11-16T06:33:19.392Z,34.77
2022-11-16T06:36:04.730Z,33.20
2022-11-16T06:38:49.817Z,31.43
2022-11-16T06:41:40.185Z,37.50
2022-11-16T06:44:26.498Z,35.20
2022-11-16T06:47:11.729Z,32.50
2022-11-16T06:49:57.213Z,42.37
2022-11-16T06:52:42.458Z,34.30
2022-11-16T06:55:28.693Z,34.10
2022-11-16T06:58:14.137Z,32.13
2022-11-16T07:01:06.346Z,35.43
2022-11-16T07:03:51.546Z,29.83
2022-11-16T07:06:36.941Z,31.90
2022-11-16T07:09:21.713Z,29.93
2022-11-16T07:12:07.037Z,31.90
2022-11-16T07:14:51.934Z,33.33
2022-11-16T07:17:37.230Z,32.90
2022-11-16T07:20:22.248Z,32.37
2022-11-16T07:23:11.364Z,31.13
2022-11-16T07:26:03.733Z,31.95
2022-11-16T07:28:49.171Z,33.10
2022-11-16T07:31:34.173Z,34.60
2022-11-16T07:34:18.889Z,33.87
2022-11-16T07:37:03.779Z,34.95
2022-11-16T07:39:49.140Z,37.20
2022-11-16T07:42:34.062Z,33.92
2022-11-16T07:45:18.896Z,31.70
2022-11-16T07:48:04.823Z,29.30
2022-11-16T07:50:50.001Z,30.20
2022-11-16T07:53:35.938Z,32.00
2022-11-16T07:56:21.898Z,35.30
2022-11-16T07:59:07.236Z,34.35
2022-11-16T08:01:52.579Z,32.10
2022-11-16T08:04:37.834Z,32.40
2022-11-16T08:07:22.853Z,28.17
2022-11-16T08:10:08.470Z,29.23
2022-11-16T08:12:53.666Z,30.73
2022-11-16T08:15:38.469Z,27.42
2022-11-16T08:20:19.595Z,27.47
2022-11-16T08:23:05.023Z,27.10
2022-11-16T08:25:49.914Z,26.92
2022-11-16T08:28:37.153Z,27.58
2022-11-16T08:31:27.961Z,26.42
2022-11-16T08:34:13.209Z,25.77
2022-11-16T08:36:58.042Z,31.60
2022-11-16T08:39:42.931Z,27.30
2022-11-16T08:42:27.880Z,25.25
2022-11-16T08:45:12.752Z,27.17
2022-11-16T08:48:03.590Z,26.50
2022-11-16T08:51:15.873Z,25.05
2022-11-16T08:53:58.403Z,26.52
2022-11-16T08:56:43.778Z,25.77
2022-11-16T08:59:29.260Z,26.85
2022-11-16T09:02:14.279Z,22.60
2022-11-16T09:04:59.785Z,21.83
2022-11-16T09:07:45.148Z,24.85
2022-11-16T09:10:30.585Z,29.25
2022-11-16T09:13:16.674Z,24.80
2022-11-16T09:16:03.848Z,21.63
2022-11-16T09:18:51.039Z,88.72
2022-11-16T09:21:37.149Z,22.05
2022-11-16T09:24:22.526Z,22.42
2022-11-16T09:27:08.247Z,26.50
2022-11-16T09:29:53.451Z,21.83
2022-11-16T09:32:38.867Z,20.02
2022-11-16T09:35:23.948Z,18.88
2022-11-16T09:38:10.057Z,17.27
2022-11-16T09:40:56.358Z,17.52
2022-11-16T09:44:00.023Z,16.95
2022-11-16T09:46:49.537Z,17.08
2022-11-16T09:49:42.343Z,17.15
2022-11-16T09:52:33.529Z,15.55
2022-11-16T09:55:30.541Z,14.75
2022-11-16T09:58:24.922Z,16.63
2022-11-16T10:01:31.044Z,17.00
2022-11-16T10:04:41.818Z,14.88
2022-11-16T10:07:30.382Z,15.95
2022-11-16T10:10:18.806Z,16.30
2022-11-16T10:13:17.254Z,16.27
2022-11-16T10:16:27.483Z,13.90
2022-11-16T10:19:37.166Z,16.23
2022-11-16T10:22:34.948Z,13.52
2022-11-16T10:25:29.339Z,17.25
2022-11-16T10:28:20.627Z,14.32
2022-11-16T10:31:22.096Z,15.05
2022-11-16T10:34:17.240Z,13.68
2022-11-16T10:37:04.737Z,14.18
2022-11-16T10:39:51.825Z,14.88
2022-11-16T10:42:37.626Z,15.07
2022-11-16T10:45:28.975Z,14.50
2022-11-16T10:48:49.627Z,12.82
2022-11-16T10:51:34.953Z,14.68
2022-11-16T10:54:20.348Z,18.58
2022-11-16T10:57:07.638Z,11.50
2022-11-16T10:59:54.254Z,17.00
2022-11-16T11:02:48.302Z,13.35
2022-11-16T11:05:35.557Z,17.80
2022-11-16T11:08:29.884Z,14.52
2022-11-16T11:11:21.839Z,14.40
2022-11-16T11:14:11.594Z,14.90
2022-11-16T11:17:10.691Z,14.55
2022-11-16T11:20:03.069Z,15.68
2022-11-16T11:22:55.042Z,18.10
2022-11-16T11:26:00.591Z,16.00
2022-11-16T11:28:49.366Z,22.02
2022-11-16T11:31:42.465Z,16.17
2022-11-16T11:34:30.177Z,14.18
2022-11-16T11:37:20.079Z,17.45
2022-11-16T11:40:29.253Z,14.82
2022-11-16T11:43:25.122Z,17.33
2022-11-16T11:46:20.656Z,14.57
2022-11-16T11:49:38.280Z,19.02
2022-11-16T11:52:42.201Z,22.10
2022-11-16T11:55:27.681Z,13.80
2022-11-16T11:58:18.607Z,18.15
2022-11-16T12:01:19.448Z,17.63
2022-11-16T12:04:34.957Z,15.32
2022-11-16T12:07:29.359Z,14.82
2022-11-16T12:10:39.466Z,11.50
2022-11-16T12:13:42.980Z,15.80
2022-11-16T12:16:53.487Z,11.43
2022-11-16T12:19:48.867Z,14.77
2022-11-16T12:23:03.789Z,13.80
2022-11-16T12:26:05.078Z,13.23
2022-11-16T12:28:59.391Z,12.05
2022-11-16T12:32:12.800Z,15.00
2022-11-16T12:35:32.384Z,20.90
2022-11-16T12:38:39.358Z,16.23
2022-11-16T12:41:49.560Z,20.42
2022-11-16T12:44:34.432Z,14.02
2022-11-16T12:47:41.014Z,17.23
2022-11-16T12:50:52.622Z,17.73
2022-11-16T12:54:06.462Z,15.40
2022-11-16T12:56:58.604Z,13.20
2022-11-16T12:59:50.090Z,15.13
2022-11-16T13:02:53.717Z,15.23
2022-11-16T13:05:42.189Z,12.90
2022-11-16T13:08:49.409Z,19.00
2022-11-16T13:11:42.322Z,14.07
2022-11-16T13:14:37.344Z,12.65
2022-11-16T13:17:33.198Z,14.07
2022-11-16T13:20:54.087Z,10.75
2022-11-16T13:24:12.663Z,12.90
2022-11-16T13:27:30.596Z,9.65
2022-11-16T13:30:37.930Z,11.88
2022-11-16T13:33:43.053Z,15.27
2022-11-16T13:36:38.163Z,10.93
2022-11-16T13:40:02.275Z,14.77
2022-11-16T13:43:16.470Z,11.73
2022-11-16T13:46:01.686Z,12.38
2022-11-16T13:48:47.626Z,13.43
2022-11-16T13:51:33.131Z,12.45
2022-11-16T13:54:45.663Z,11.52
2022-11-16T13:57:34.335Z,12.63
2022-11-16T14:00:26.641Z,11.18
2022-11-16T14:03:11.912Z,11.00
2022-11-16T14:05:56.884Z,14.57
2022-11-16T14:09:00.477Z,10.82
2022-11-16T14:11:45.630Z,13.60
2022-11-16T14:15:03.898Z,14.80
2022-11-16T14:18:02.508Z,13.55
2022-11-16T14:21:02.630Z,14.27
2022-11-16T14:23:53.889Z,11.88
2022-11-16T14:26:44.880Z,12.80
2022-11-16T14:30:31.451Z,11.48
2022-11-16T14:33:30.712Z,18.13
2022-11-16T14:36:15.765Z,13.15
2022-11-16T14:39:15.872Z,10.38
2022-11-16T14:42:04.591Z,11.68
2022-11-16T14:44:57.824Z,13.77
2022-11-16T14:47:43.415Z,13.18
2022-11-16T14:50:28.310Z,15.30
2022-11-16T14:53:17.773Z,14.35
2022-11-16T14:56:12.072Z,12.55
2022-11-16T14:59:02.365Z,17.38
2022-11-16T15:01:47.524Z,14.43
2022-11-16T15:04:32.767Z,13.43
2022-11-16T15:07:19.971Z,14.23
2022-11-16T15:10:05.979Z,18.73
2022-11-16T15:12:53.749Z,18.45
2022-11-16T15:15:38.718Z,17.05
2022-11-16T15:18:24.077Z,14.50
2022-11-16T15:21:22.279Z,17.00
2022-11-16T15:24:29.508Z,17.42
2022-11-16T15:27:33.643Z,17.75
2022-11-16T15:30:21.165Z,13.68
2022-11-16T15:33:17.978Z,20.63
2022-11-16T15:36:23.195Z,19.70
2022-11-16T15:39:16.413Z,19.67
2022-11-16T15:42:04.296Z,18.67
2022-11-16T15:44:50.769Z,20.27
2022-11-16T15:47:37.295Z,19.48
2022-11-16T15:50:23.477Z,20.00
2022-11-16T15:53:33.693Z,17.92
2022-11-16T15:56:21.528Z,20.75
2022-11-16T15:59:12.891Z,21.05
2022-11-16T16:01:58.284Z,27.15
2022-11-16T16:04:43.493Z,33.30
2022-11-16T16:07:39.776Z,26.40
2022-11-16T16:10:26.406Z,25.40
2022-11-16T16:13:24.762Z,24.20
2022-11-16T16:16:26.076Z,19.00
2022-11-16T16:19:34.732Z,19.60
2022-11-16T16:22:26.880Z,21.98
2022-11-16T16:25:32.039Z,32.97
2022-11-16T16:28:16.974Z,36.92
2022-11-16T16:31:02.304Z,36.10
2022-11-16T16:33:47.715Z,27.73
2022-11-16T16:36:32.656Z,20.90
2022-11-16T16:39:18.045Z,24.23
2022-11-16T16:42:03.405Z,22.50
2022-11-16T16:44:49.560Z,24.13
2022-11-16T16:47:34.897Z,19.80
2022-11-16T16:50:19.764Z,26.97
2022-11-16T16:53:05.284Z,21.20
2022-11-16T16:55:50.545Z,18.23
2022-11-16T16:58:35.477Z,20.13
2022-11-16T17:01:20.614Z,21.33
2022-11-16T17:04:06.315Z,23.63
2022-11-16T17:06:52.617Z,21.23
2022-11-16T17:09:37.852Z,22.13
2022-11-16T17:12:22.829Z,21.13
2022-11-16T17:15:08.546Z,21.33
2022-11-16T17:17:53.414Z,18.10
2022-11-16T17:20:41.375Z,21.85
2022-11-16T17:23:30.362Z,20.53
2022-11-16T17:26:15.888Z,24.13
2022-11-16T17:29:00.923Z,23.30
2022-11-16T17:31:47.354Z,21.13
2022-11-16T17:34:32.513Z,20.47
2022-11-16T17:37:17.555Z,18.23
2022-11-16T17:40:02.437Z,21.03
2022-11-16T17:42:47.211Z,19.20
2022-11-16T17:45:32.256Z,19.87
2022-11-16T17:48:17.201Z,21.38
2022-11-16T17:51:02.786Z,18.70
2022-11-16T17:53:48.438Z,18.63
2022-11-16T17:56:33.860Z,19.58
2022-11-16T17:59:18.689Z,19.00
2022-11-16T18:02:03.686Z,21.30
2022-11-16T18:04:51.231Z,18.00
2022-11-16T18:07:36.768Z,19.90
2022-11-16T18:10:22.283Z,18.10
2022-11-16T18:13:07.584Z,19.30
2022-11-16T18:15:52.627Z,18.33
2022-11-16T18:18:38.434Z,21.67
2022-11-16T18:21:23.717Z,20.93
2022-11-16T18:24:09.560Z,19.97
2022-11-16T18:26:54.552Z,17.37
2022-11-16T18:29:39.946Z,22.40
2022-11-16T18:32:24.914Z,17.47
2022-11-16T18:35:09.753Z,19.40
2022-11-16T18:37:54.655Z,19.30
2022-11-16T18:40:40.555Z,18.03
2022-11-16T18:43:25.505Z,16.20
2022-11-16T18:46:10.455Z,19.90
2022-11-16T18:48:56.079Z,16.70
2022-11-16T18:51:41.487Z,19.63
2022-11-16T18:54:26.360Z,21.67
2022-11-16T18:57:11.466Z,21.27
2022-11-16T18:59:56.210Z,18.10
2022-11-16T19:02:41.179Z,18.67
2022-11-16T19:05:25.973Z,17.07
2022-11-16T19:08:10.887Z,20.70
2022-11-16T19:10:56.356Z,20.03
2022-11-16T19:13:43.097Z,16.87
2022-11-16T19:16:28.515Z,19.63
2022-11-16T19:19:14.040Z,17.77
2022-11-16T19:21:59.259Z,18.20
2022-11-16T19:24:44.211Z,25.73
2022-11-16T19:27:30.179Z,19.67
2022-11-16T19:30:16.842Z,23.50
2022-11-16T19:33:01.830Z,19.97
2022-11-16T19:35:46.711Z,19.63
2022-11-16T19:38:31.606Z,19.70
2022-11-16T19:41:18.705Z,16.67
2022-11-16T19:44:03.841Z,17.63
2022-11-16T19:46:48.747Z,16.70
2022-11-16T19:49:33.742Z,19.03
2022-11-16T19:52:19.308Z,16.10
2022-11-16T19:55:04.930Z,16.57
2022-11-16T19:57:49.842Z,18.87
2022-11-16T20:00:35.042Z,17.57
2022-11-16T20:03:20.325Z,16.97
2022-11-16T20:06:17.549Z,28.43
2022-11-16T20:09:05.710Z,17.50
2022-11-16T20:11:50.599Z,24.50
2022-11-16T20:14:35.605Z,20.30
2022-11-16T20:17:20.882Z,15.93
2022-11-16T20:20:06.198Z,16.73
2022-11-16T20:22:51.212Z,20.50
2022-11-16T20:25:41.021Z,15.67
2022-11-16T20:28:26.053Z,16.50
2022-11-16T20:31:15.730Z,18.57
2022-11-16T20:34:04.179Z,15.70
2022-11-16T20:36:49.376Z,17.27
2022-11-16T20:39:34.616Z,15.77
2022-11-16T20:42:19.459Z,19.97
2022-11-16T20:45:05.474Z,15.50
2022-11-16T20:47:50.454Z,16.90
2022-11-16T20:50:35.386Z,16.03
2022-11-16T20:53:20.449Z,17.50
2022-11-16T20:56:06.289Z,20.67
2022-11-16T20:58:51.589Z,18.40
2022-11-16T21:01:36.910Z,16.50
2022-11-16T21:04:21.938Z,15.37
2022-11-16T21:07:07.267Z,18.87
2022-11-16T21:09:52.630Z,19.07
2022-11-16T21:12:42.529Z,18.87
2022-11-16T21:15:28.223Z,20.13
2022-11-16T21:18:13.415Z,17.63
2022-11-16T21:20:59.392Z,19.20
2022-11-16T21:23:44.641Z,24.17
2022-11-16T21:26:31.563Z,22.07
2022-11-16T21:29:16.580Z,19.90
2022-11-16T21:32:01.512Z,14.27
2022-11-16T21:34:46.803Z,17.23
2022-11-16T21:37:31.639Z,17.33
2022-11-16T21:40:16.635Z,18.03
2022-11-16T21:43:02.099Z,14.40
2022-11-16T21:45:48.121Z,15.80
2022-11-16T21:48:33.959Z,15.40
2022-11-16T21:51:21.340Z,16.40
2022-11-16T21:54:06.872Z,14.70
2022-11-16T21:56:51.818Z,17.50
2022-11-16T21:59:36.737Z,15.87
2022-11-16T22:02:21.601Z,16.73
2022-11-16T22:05:07.317Z,14.33
2022-11-16T22:07:52.460Z,19.07
2022-11-16T22:10:38.141Z,15.73
2022-11-16T22:13:23.252Z,13.03
2022-11-16T22:16:13.479Z,17.67
2022-11-16T22:18:58.745Z,20.97
2022-11-16T22:21:43.735Z,17.63
2022-11-16T22:24:28.598Z,17.60
2022-11-16T22:27:18.497Z,14.93
2022-11-16T22:30:03.475Z,28.90
2022-11-16T22:32:48.862Z,23.17
2022-11-16T22:35:33.828Z,27.27
2022-11-16T22:38:18.801Z,19.80
2022-11-16T22:41:04.331Z,18.50
2022-11-16T22:43:49.772Z,16.63
2022-11-16T22:46:34.685Z,19.23
2022-11-16T22:49:19.554Z,16.87
2022-11-16T22:52:04.589Z,17.00
2022-11-16T22:54:49.741Z,18.70
2022-11-16T22:57:34.813Z,18.17
2022-11-16T23:00:20.034Z,18.10
2022-11-16T23:03:06.203Z,14.07
2022-11-16T23:05:51.463Z,17.87
2022-11-16T23:08:36.603Z,16.27
2022-11-16T23:11:23.812Z,16.33
2022-11-16T23:14:16.975Z,15.50
2022-11-16T23:17:03.284Z,17.57
2022-11-16T23:19:48.240Z,13.37
2022-11-16T23:22:33.661Z,16.73
2022-11-16T23:25:18.577Z,12.67
2022-11-16T23:28:15.366Z,14.23
2022-11-16T23:31:00.401Z,15.33
2022-11-16T23:33:45.619Z,15.60
2022-11-16T23:36:30.492Z,14.83
2022-11-16T23:39:15.505Z,12.70
2022-11-16T23:42:00.749Z,16.90
2022-11-16T23:44:45.778Z,19.30
2022-11-16T23:47:30.706Z,13.40
2022-11-16T23:50:15.763Z,18.47
2022-11-16T23:53:00.653Z,16.10
2022-11-16T23:55:45.444Z,13.60
2022-11-16T23:58:30.414Z,15.23
